createdAt,value
2023-03-16T00:28:47.229Z,968.99
2023-03-16T00:58:47.816Z,968.97
2023-03-16T01:28:47.744Z,968.76
2023-03-16T01:58:47.607Z,968.43
2023-03-16T02:28:47.454Z,968.23
2023-03-16T02:58:47.480Z,968.31
2023-03-16T03:28:47.258Z,968.34
2023-03-16T03:58:47.677Z,968.52
2023-03-16T04:28:47.497Z,968.45
2023-03-16T04:58:47.541Z,968.24
2023-03-16T05:28:47.180Z,968.35
2023-03-16T05:58:47.250Z,968.53
2023-03-16T06:28:46.884Z,968.39
2023-03-16T06:58:47.519Z,968.55
2023-03-16T07:28:47.466Z,968.51
2023-03-16T07:58:47.042Z,968.26
2023-03-16T08:28:47.458Z,968.31
2023-03-16T08:58:47.313Z,968.2
2023-03-16T09:28:46.830Z,968.04
2023-03-16T09:58:47.128Z,967.68
2023-03-16T10:28:46.788Z,967.59
2023-03-16T10:58:47.248Z,967.57
2023-03-16T11:28:47.124Z,967.47
2023-03-16T11:58:46.948Z,967.2
2023-03-16T12:28:46.530Z,966.84
2023-03-16T12:58:47.040Z,966.41
2023-03-16T13:28:46.640Z,966.15
2023-03-16T13:58:46.418Z,965.76
2023-03-16T14:28:47.052Z,965.74
2023-03-16T14:58:46.644Z,965.58
2023-03-16T15:58:46.697Z,965.26
2023-03-16T16:28:46.302Z,964.86
2023-03-16T17:28:46.732Z,964.88
2023-03-16T17:58:46.139Z,965.11
2023-03-16T18:28:47.408Z,965.23
2023-03-16T18:58:47.020Z,965.35
2023-03-16T19:28:45.795Z,965.4
2023-03-16T19:58:46.215Z,965.42
2023-03-16T20:58:46.554Z,965.5
2023-03-16T21:28:46.161Z,965.52
2023-03-16T22:28:45.985Z,965.27
2023-03-16T22:58:45.836Z,965.05
2023-03-16T23:28:45.740Z,965.15
2023-03-16T23:58:45.708Z,965.06
